createdAt,value
2018-02-04T00:00:57.480Z,19.40
2018-02-04T00:03:25.682Z,21.23
2018-02-04T00:05:53.928Z,19.50
2018-02-04T00:08:22.319Z,20.10
2018-02-04T00:10:50.582Z,17.87
2018-02-04T00:13:18.921Z,18.33
2018-02-04T00:15:47.953Z,16.73
2018-02-04T00:18:16.156Z,17.97
2018-02-04T00:20:44.376Z,18.17
2018-02-04T00:23:12.676Z,21.20
2018-02-04T00:25:40.877Z,18.77
2018-02-04T00:28:09.105Z,19.30
2018-02-04T00:30:37.533Z,18.90
2018-02-04T00:33:05.895Z,21.63
2018-02-04T00:35:34.071Z,20.77
2018-02-04T00:38:02.319Z,19.90
2018-02-04T00:40:30.549Z,19.13
2018-02-04T00:42:58.864Z,21.30
2018-02-04T00:45:27.237Z,22.97
2018-02-04T00:47:56.277Z,21.07
2018-02-04T00:50:24.520Z,22.77
2018-02-04T00:52:53.500Z,21.40
2018-02-04T00:55:21.804Z,20.67
2018-02-04T00:57:50.049Z,24.57
2018-02-04T01:00:19.096Z,22.03
2018-02-04T01:02:47.406Z,23.07
2018-02-04T01:05:15.644Z,23.33
2018-02-04T01:07:43.941Z,23.93
2018-02-04T01:10:12.148Z,21.73
2018-02-04T01:12:41.193Z,23.50
2018-02-04T01:15:10.650Z,24.23
2018-02-04T01:17:39.644Z,22.03
2018-02-04T01:20:08.636Z,22.13
2018-02-04T01:22:37.631Z,21.23
2018-02-04T01:25:06.611Z,22.40
2018-02-04T01:27:35.609Z,22.83
2018-02-04T01:30:06.026Z,21.87
2018-02-04T01:32:34.237Z,21.40
2018-02-04T01:35:02.515Z,25.83
2018-02-04T01:37:30.804Z,22.03
2018-02-04T01:39:58.983Z,22.03
2018-02-04T01:42:27.206Z,25.40
2018-02-04T01:44:55.515Z,22.53
2018-02-04T01:47:23.731Z,24.50
2018-02-04T01:49:52.044Z,23.87
2018-02-04T01:52:21.288Z,20.93
2018-02-04T01:54:49.531Z,21.00
2018-02-04T01:57:18.508Z,23.03
2018-02-04T01:59:47.683Z,21.93
2018-02-04T02:02:15.880Z,20.33
2018-02-04T02:04:44.868Z,19.93
2018-02-04T02:07:15.128Z,20.83
2018-02-04T02:09:43.338Z,22.00
2018-02-04T02:12:11.561Z,20.23
2018-02-04T02:14:39.860Z,21.23
2018-02-04T02:17:08.085Z,22.77
2018-02-04T02:19:37.092Z,21.77
2018-02-04T02:22:05.383Z,21.47
2018-02-04T02:24:34.346Z,21.43
2018-02-04T02:27:02.562Z,21.07
2018-02-04T02:29:31.108Z,19.73
2018-02-04T02:32:00.107Z,21.10
2018-02-04T02:34:29.118Z,20.60
2018-02-04T02:36:57.362Z,19.73
2018-02-04T02:39:25.591Z,20.37
2018-02-04T02:41:53.896Z,20.00
2018-02-04T02:44:22.248Z,18.93
2018-02-04T02:46:50.470Z,19.67
2018-02-04T02:49:18.669Z,19.60
2018-02-04T02:51:47.668Z,19.50
2018-02-04T02:54:15.886Z,18.90
2018-02-04T02:56:44.097Z,19.43
2018-02-04T02:59:13.123Z,19.43
2018-02-04T03:01:41.332Z,20.30
2018-02-04T03:04:09.538Z,20.67
2018-02-04T03:06:38.556Z,19.40
2018-02-04T03:09:07.719Z,19.13
2018-02-04T03:11:35.916Z,20.33
2018-02-04T03:14:04.908Z,20.37
2018-02-04T03:16:33.906Z,22.13
2018-02-04T03:19:02.872Z,17.70
2018-02-04T03:21:31.101Z,19.37
2018-02-04T03:23:59.352Z,20.93
2018-02-04T03:26:28.320Z,20.97
2018-02-04T03:28:56.589Z,20.03
2018-02-04T03:31:24.813Z,19.63
2018-02-04T03:33:53.764Z,20.37
2018-02-04T03:36:22.021Z,22.57
2018-02-04T03:38:50.252Z,22.03
2018-02-04T03:41:18.470Z,22.07
2018-02-04T03:43:47.919Z,21.40
2018-02-04T03:46:16.900Z,22.37
2018-02-04T03:48:45.897Z,22.77
2018-02-04T03:51:14.880Z,20.67
2018-02-04T03:53:43.849Z,21.77
2018-02-04T03:56:12.114Z,19.23
2018-02-04T03:58:40.340Z,20.80
2018-02-04T04:01:09.336Z,21.70
2018-02-04T04:03:38.306Z,22.27
2018-02-04T04:06:06.572Z,22.90
2018-02-04T04:08:34.900Z,22.90
2018-02-04T04:11:03.116Z,21.50
2018-02-04T04:13:31.377Z,22.50
2018-02-04T04:15:59.595Z,22.23
2018-02-04T04:18:28.592Z,25.33
2018-02-04T04:20:57.599Z,22.63
2018-02-04T04:23:25.813Z,20.63
2018-02-04T04:25:54.144Z,22.40
2018-02-04T04:28:23.212Z,21.03
2018-02-04T04:30:51.692Z,22.10
2018-02-04T04:33:19.900Z,23.63
2018-02-04T04:35:48.132Z,18.43
2018-02-04T04:38:16.328Z,19.77
2018-02-04T04:40:44.544Z,21.70
2018-02-04T04:43:13.558Z,22.87
2018-02-04T04:45:42.554Z,23.70
2018-02-04T04:48:10.769Z,21.77
2018-02-04T04:50:39.028Z,22.40
2018-02-04T04:53:07.230Z,21.37
2018-02-04T04:55:35.600Z,21.03
2018-02-04T04:58:03.877Z,21.17
2018-02-04T05:00:32.283Z,23.23
2018-02-04T05:03:00.459Z,20.13
2018-02-04T05:05:29.574Z,21.63
2018-02-04T05:07:57.785Z,21.70
2018-02-04T05:10:26.000Z,22.93
2018-02-04T05:12:55.481Z,20.50
2018-02-04T05:15:23.706Z,22.17
2018-02-04T05:17:51.908Z,22.47
2018-02-04T05:20:20.212Z,22.43
2018-02-04T05:22:48.528Z,23.30
2018-02-04T05:25:16.822Z,22.10
2018-02-04T05:27:45.280Z,22.93
2018-02-04T05:30:14.309Z,23.17
2018-02-04T05:32:42.522Z,21.57
2018-02-04T05:35:10.968Z,21.87
2018-02-04T05:37:39.224Z,22.23
2018-02-04T05:40:07.508Z,22.07
2018-02-04T05:42:35.798Z,20.90
2018-02-04T05:45:04.851Z,22.20
2018-02-04T05:47:33.896Z,21.90
2018-02-04T05:50:02.148Z,21.77
2018-02-04T05:52:30.353Z,20.17
2018-02-04T05:54:58.581Z,22.13
2018-02-04T05:57:26.852Z,22.50
2018-02-04T05:59:55.875Z,19.23
2018-02-04T06:02:24.144Z,19.33
2018-02-04T06:04:52.400Z,21.47
2018-02-04T06:07:21.400Z,21.27
2018-02-04T06:09:49.592Z,21.53
2018-02-04T06:12:17.844Z,20.90
2018-02-04T06:14:46.061Z,22.37
2018-02-04T06:17:14.364Z,21.90
2018-02-04T06:19:42.672Z,20.83
2018-02-04T06:22:11.670Z,19.23
2018-02-04T06:24:40.652Z,24.10
2018-02-04T06:27:09.696Z,21.57
2018-02-04T06:29:37.921Z,21.20
2018-02-04T06:32:06.937Z,24.67
2018-02-04T06:34:35.977Z,23.63
2018-02-04T06:37:04.282Z,25.00
2018-02-04T06:39:33.293Z,28.00
2018-02-04T06:42:01.673Z,24.70
2018-02-04T06:44:29.879Z,26.63
2018-02-04T06:46:58.129Z,26.77
2018-02-04T06:49:26.421Z,24.77
2018-02-04T06:51:54.618Z,25.67
2018-02-04T06:54:22.857Z,26.07
2018-02-04T06:56:51.177Z,28.57
2018-02-04T06:59:21.785Z,29.63
2018-02-04T07:01:50.016Z,28.53
2018-02-04T07:04:19.111Z,24.73
2018-02-04T07:06:47.281Z,30.07
2018-02-04T07:09:17.018Z,26.90
2018-02-04T07:11:45.320Z,26.33
2018-02-04T07:14:14.312Z,25.37
2018-02-04T07:16:42.538Z,26.37
2018-02-04T07:19:10.788Z,26.17
2018-02-04T07:21:39.096Z,25.10
2018-02-04T07:24:07.383Z,26.07
2018-02-04T07:26:35.657Z,26.00
2018-02-04T07:29:03.870Z,28.53
2018-02-04T07:31:32.088Z,27.40
2018-02-04T07:34:00.316Z,27.57
2018-02-04T07:36:28.556Z,25.67
2018-02-04T07:38:56.761Z,29.07
2018-02-04T07:41:25.009Z,28.93
2018-02-04T07:43:53.340Z,27.63
2018-02-04T07:46:21.590Z,25.23
2018-02-04T07:48:49.839Z,34.83
2018-02-04T07:51:18.817Z,29.07
2018-02-04T07:53:47.824Z,30.70
2018-02-04T07:56:16.833Z,34.80
2018-02-04T07:58:45.191Z,32.17
2018-02-04T08:01:14.269Z,27.90
2018-02-04T08:03:42.564Z,37.23
2018-02-04T08:06:11.705Z,32.00
2018-02-04T08:08:39.926Z,34.83
2018-02-04T08:11:08.941Z,35.63
2018-02-04T08:13:37.192Z,34.80
2018-02-04T08:16:06.178Z,37.33
2018-02-04T08:18:34.454Z,39.23
2018-02-04T08:21:02.669Z,38.97
2018-02-04T08:23:30.926Z,32.57
2018-02-04T08:25:59.392Z,32.93
2018-02-04T08:28:28.384Z,33.60
2018-02-04T08:30:57.393Z,32.83
2018-02-04T08:33:26.447Z,31.57
2018-02-04T08:35:54.742Z,32.57
2018-02-04T08:38:22.940Z,36.93
2018-02-04T08:40:51.956Z,31.93
2018-02-04T08:43:20.321Z,35.47
2018-02-04T08:45:49.288Z,30.70
2018-02-04T08:48:17.536Z,37.17
2018-02-04T08:50:45.748Z,39.13
2018-02-04T08:53:14.835Z,35.23
2018-02-04T08:55:43.344Z,33.47
2018-02-04T08:58:11.565Z,35.43
2018-02-04T09:00:39.761Z,40.63
2018-02-04T09:03:07.989Z,37.30
2018-02-04T09:05:36.255Z,33.67
2018-02-04T09:08:05.206Z,35.43
2018-02-04T09:10:33.452Z,38.07
2018-02-04T09:13:01.653Z,37.53
2018-02-04T09:15:29.942Z,37.50
2018-02-04T09:17:58.952Z,39.13
2018-02-04T09:20:27.925Z,38.17
2018-02-04T09:22:56.128Z,32.33
2018-02-04T09:25:24.381Z,32.10
2018-02-04T09:27:52.598Z,28.07
2018-02-04T09:30:20.826Z,31.17
2018-02-04T09:32:49.061Z,30.23
2018-02-04T09:35:17.320Z,37.47
2018-02-04T09:37:45.541Z,33.00
2018-02-04T09:40:13.784Z,40.33
2018-02-04T09:42:42.016Z,36.43
2018-02-04T09:45:10.992Z,36.37
2018-02-04T09:47:39.316Z,35.27
2018-02-04T09:50:07.594Z,41.50
2018-02-04T09:52:35.802Z,37.07
2018-02-04T09:55:04.053Z,33.33
2018-02-04T09:57:33.052Z,40.63
2018-02-04T10:00:01.259Z,38.40
2018-02-04T10:02:29.580Z,36.37
2018-02-04T10:04:57.932Z,30.73
2018-02-04T10:07:26.120Z,28.97
2018-02-04T10:09:55.220Z,29.37
2018-02-04T10:12:23.473Z,34.83
2018-02-04T10:14:52.469Z,36.30
2018-02-04T10:17:21.514Z,36.33
2018-02-04T10:19:49.716Z,34.30
2018-02-04T10:22:17.916Z,38.33
2018-02-04T10:24:46.337Z,33.83
2018-02-04T10:27:14.600Z,33.83
2018-02-04T10:29:42.811Z,29.77
2018-02-04T10:32:11.050Z,38.03
2018-02-04T10:34:39.313Z,34.50
2018-02-04T10:39:43.292Z,38.43
2018-02-04T10:42:11.492Z,40.63
2018-02-04T10:44:40.527Z,35.90
2018-02-04T10:47:08.782Z,36.67
2018-02-04T10:49:37.001Z,36.53
2018-02-04T10:52:05.196Z,32.97
2018-02-04T10:54:33.429Z,32.00
2018-02-04T10:57:01.612Z,31.93
2018-02-04T10:59:29.820Z,30.13
2018-02-04T11:01:58.064Z,31.00
2018-02-04T11:04:26.359Z,34.47
2018-02-04T11:06:55.748Z,33.53
2018-02-04T11:09:23.975Z,33.83
2018-02-04T11:11:53.060Z,34.10
2018-02-04T11:14:21.372Z,28.10
2018-02-04T11:16:49.615Z,32.70
2018-02-04T11:19:18.588Z,29.67
2018-02-04T11:21:46.797Z,31.53
2018-02-04T11:24:15.849Z,30.57
2018-02-04T11:26:44.060Z,33.57
2018-02-04T11:29:13.025Z,29.90
2018-02-04T11:31:41.308Z,26.23
2018-02-04T11:36:51.054Z,34.10
2018-02-04T11:39:19.328Z,30.00
2018-02-04T11:41:47.521Z,31.03
2018-02-04T11:44:15.776Z,30.57
2018-02-04T11:46:44.031Z,30.10
2018-02-04T11:49:12.182Z,29.67
2018-02-04T11:51:40.459Z,31.90
2018-02-04T11:54:08.697Z,29.67
2018-02-04T11:56:36.910Z,30.23
2018-02-04T11:59:05.248Z,26.73
2018-02-04T12:01:33.718Z,27.17
2018-02-04T12:04:02.084Z,26.80
2018-02-04T12:06:31.113Z,27.37
2018-02-04T12:08:59.329Z,28.60
2018-02-04T12:11:27.528Z,39.13
2018-02-04T12:13:55.803Z,30.13
2018-02-04T12:16:24.000Z,25.47
2018-02-04T12:18:52.298Z,26.87
2018-02-04T12:21:20.612Z,27.97
2018-02-04T12:23:48.928Z,28.33
2018-02-04T12:26:17.178Z,29.40
2018-02-04T12:28:45.431Z,29.07
2018-02-04T12:31:13.643Z,34.00
2018-02-04T12:33:41.862Z,27.63
2018-02-04T12:36:10.904Z,31.47
2018-02-04T12:38:39.260Z,29.67
2018-02-04T12:41:08.276Z,26.57
2018-02-04T12:43:36.545Z,28.67
2018-02-04T12:46:05.607Z,29.10
2018-02-04T12:48:34.568Z,31.87
2018-02-04T12:51:02.829Z,32.43
2018-02-04T12:53:31.186Z,33.80
2018-02-04T12:56:00.104Z,33.50
2018-02-04T12:58:28.802Z,34.30
2018-02-04T13:00:57.238Z,30.83
2018-02-04T13:03:26.380Z,35.07
2018-02-04T13:05:54.728Z,36.30
2018-02-04T13:08:22.992Z,29.60
2018-02-04T13:10:53.453Z,33.80
2018-02-04T13:13:21.901Z,28.90
2018-02-04T13:15:51.013Z,31.30
2018-02-04T13:18:19.706Z,25.97
2018-02-04T13:20:48.919Z,28.67
2018-02-04T13:23:17.157Z,27.17
2018-02-04T13:25:46.120Z,29.20
2018-02-04T13:28:14.363Z,25.57
2018-02-04T13:30:42.578Z,24.53
2018-02-04T13:33:10.779Z,25.57
2018-02-04T13:35:39.780Z,29.43
2018-02-04T13:38:08.011Z,30.37
2018-02-04T13:40:36.244Z,32.40
2018-02-04T13:43:04.542Z,28.53
2018-02-04T13:45:32.769Z,29.07
2018-02-04T13:48:01.809Z,26.30
2018-02-04T13:50:30.071Z,37.43
2018-02-04T13:52:58.264Z,29.43
2018-02-04T13:55:26.489Z,27.63
2018-02-04T13:57:54.758Z,24.27
2018-02-04T14:00:23.760Z,24.97
2018-02-04T14:02:52.849Z,23.23
2018-02-04T14:05:21.926Z,27.87
2018-02-04T14:07:50.544Z,25.97
2018-02-04T14:10:18.889Z,24.10
2018-02-04T14:12:47.208Z,24.90
2018-02-04T14:15:15.505Z,27.60
2018-02-04T14:17:43.744Z,25.80
2018-02-04T14:20:12.007Z,27.80
2018-02-04T14:22:41.009Z,28.70
2018-02-04T14:25:09.994Z,26.90
2018-02-04T14:27:39.002Z,25.57
2018-02-04T14:30:07.233Z,26.00
2018-02-04T14:32:36.266Z,26.40
2018-02-04T14:35:05.296Z,25.77
2018-02-04T14:37:33.541Z,28.47
2018-02-04T14:40:01.769Z,25.67
2018-02-04T14:42:30.001Z,27.80
2018-02-04T14:44:58.254Z,27.07
2018-02-04T14:47:27.216Z,22.83
2018-02-04T14:49:55.491Z,27.57
2018-02-04T14:52:23.701Z,24.30
2018-02-04T14:54:51.921Z,25.23
2018-02-04T14:57:20.220Z,26.23
2018-02-04T14:59:48.476Z,24.63
2018-02-04T15:02:16.740Z,25.03
2018-02-04T15:04:44.970Z,24.63
2018-02-04T15:07:13.192Z,27.57
2018-02-04T15:09:41.644Z,28.03
2018-02-04T15:12:10.109Z,27.40
2018-02-04T15:14:39.892Z,35.50
2018-02-04T15:17:08.148Z,92.30
2018-02-04T15:19:36.433Z,30.77
2018-02-04T15:22:04.628Z,24.20
2018-02-04T15:24:32.881Z,27.00
2018-02-04T15:27:01.226Z,25.73
2018-02-04T15:29:29.456Z,25.57
2018-02-04T15:31:57.652Z,25.33
2018-02-04T15:34:26.032Z,26.20
2018-02-04T15:36:54.383Z,27.20
2018-02-04T15:39:22.571Z,23.90
2018-02-04T15:41:51.097Z,27.10
2018-02-04T15:44:19.317Z,25.97
2018-02-04T15:46:47.527Z,29.60
2018-02-04T15:49:16.556Z,26.77
2018-02-04T15:51:44.780Z,26.37
2018-02-04T15:54:13.824Z,26.67
2018-02-04T15:56:42.152Z,26.17
2018-02-04T15:59:11.163Z,26.67
2018-02-04T16:01:39.407Z,28.97
2018-02-04T16:04:07.655Z,29.40
2018-02-04T16:06:35.841Z,26.67
2018-02-04T16:09:04.190Z,28.93
2018-02-04T16:11:32.540Z,29.53
2018-02-04T16:14:01.504Z,28.50
2018-02-04T16:16:29.732Z,30.00
2018-02-04T16:18:58.168Z,29.60
2018-02-04T16:21:26.378Z,28.23
2018-02-04T16:23:54.605Z,34.87
2018-02-04T16:26:22.933Z,40.27
2018-02-04T16:28:51.143Z,39.57
2018-02-04T16:31:19.383Z,38.53
2018-02-04T16:33:47.640Z,40.90
2018-02-04T16:36:16.612Z,33.50
2018-02-04T16:38:44.839Z,38.40
2018-02-04T16:41:13.905Z,34.83
2018-02-04T16:43:42.920Z,34.47
2018-02-04T16:46:11.232Z,37.17
2018-02-04T16:48:39.458Z,33.97
2018-02-04T16:51:08.484Z,39.30
2018-02-04T16:53:36.771Z,37.33
2018-02-04T16:56:06.032Z,35.53
2018-02-04T16:58:34.256Z,36.63
2018-02-04T17:01:02.508Z,39.77
2018-02-04T17:03:30.812Z,35.93
2018-02-04T17:05:59.464Z,34.13
2018-02-04T17:08:27.657Z,37.33
2018-02-04T17:10:56.077Z,36.33
2018-02-04T17:13:25.083Z,34.27
2018-02-04T17:15:54.093Z,39.97
2018-02-04T17:18:22.492Z,31.87
2018-02-04T17:20:50.772Z,34.40
2018-02-04T17:23:19.235Z,35.13
2018-02-04T17:25:49.909Z,37.17
2018-02-04T17:28:19.590Z,34.57
2018-02-04T17:30:48.396Z,34.90
2018-02-04T17:33:17.448Z,35.20
2018-02-04T17:35:45.676Z,32.37
2018-02-04T17:38:13.958Z,39.93
2018-02-04T17:43:11.197Z,38.53
2018-02-04T17:45:39.397Z,39.33
2018-02-04T17:48:07.728Z,37.23
2018-02-04T17:50:36.720Z,32.70
2018-02-04T17:53:05.008Z,33.73
2018-02-04T17:55:33.268Z,33.43
2018-02-04T17:58:02.383Z,52.03
2018-02-04T18:00:30.661Z,43.57
2018-02-04T18:02:59.165Z,38.00
2018-02-04T18:05:27.476Z,35.40
2018-02-04T18:07:55.688Z,35.87
2018-02-04T18:10:24.143Z,36.67
2018-02-04T18:12:52.432Z,35.00
2018-02-04T18:15:21.472Z,37.63
2018-02-04T18:17:49.680Z,34.03
2018-02-04T18:20:18.712Z,29.53
2018-02-04T18:22:46.993Z,32.40
2018-02-04T18:25:15.239Z,30.80
2018-02-04T18:27:43.527Z,32.77
2018-02-04T18:30:12.489Z,31.57
2018-02-04T18:32:40.697Z,31.93
2018-02-04T18:35:09.797Z,28.50
2018-02-04T18:37:38.796Z,30.63
2018-02-04T18:40:07.008Z,25.30
2018-02-04T18:42:35.244Z,27.20
2018-02-04T18:45:03.501Z,31.23
2018-02-04T18:47:31.705Z,27.13
2018-02-04T18:50:01.358Z,28.27
2018-02-04T18:52:29.554Z,29.53
2018-02-04T18:54:58.009Z,28.50
2018-02-04T18:57:26.267Z,27.53
2018-02-04T18:59:54.476Z,28.87
2018-02-04T19:02:22.680Z,28.00
2018-02-04T19:04:50.917Z,26.47
2018-02-04T19:07:19.152Z,27.30
2018-02-04T19:09:48.093Z,26.13
2018-02-04T19:12:16.414Z,25.07
2018-02-04T19:14:44.609Z,25.47
2018-02-04T19:17:12.948Z,26.43
2018-02-04T19:19:41.980Z,26.70
2018-02-04T19:22:10.250Z,26.73
2018-02-04T19:24:38.638Z,29.07
2018-02-04T19:27:06.982Z,26.03
2018-02-04T19:29:35.957Z,27.13
2018-02-04T19:32:04.975Z,26.27
2018-02-04T19:34:33.985Z,27.13
2018-02-04T19:37:02.897Z,25.20
2018-02-04T19:39:31.108Z,25.97
2018-02-04T19:41:59.459Z,26.20
2018-02-04T19:44:27.743Z,26.60
2018-02-04T19:46:56.045Z,28.97
2018-02-04T19:49:24.304Z,28.43
2018-02-04T19:51:52.585Z,26.93
2018-02-04T19:54:20.830Z,27.53
2018-02-04T19:56:49.109Z,25.40
2018-02-04T19:59:17.354Z,25.80
2018-02-04T20:01:46.369Z,26.67
2018-02-04T20:04:14.605Z,26.43
2018-02-04T20:06:42.824Z,26.30
2018-02-04T20:09:11.124Z,28.07
2018-02-04T20:11:40.421Z,30.53
2018-02-04T20:14:08.725Z,37.23
2018-02-04T20:16:37.176Z,30.87
2018-02-04T20:19:05.538Z,31.63
2018-02-04T20:21:33.862Z,27.97
2018-02-04T20:24:03.025Z,27.20
2018-02-04T20:26:32.804Z,27.63
2018-02-04T20:29:01.312Z,29.73
2018-02-04T20:31:30.420Z,32.00
2018-02-04T20:34:11.306Z,35.57
2018-02-04T20:36:39.760Z,31.57
2018-02-04T20:39:08.057Z,28.37
2018-02-04T20:41:37.168Z,29.27
2018-02-04T20:44:05.392Z,29.87
2018-02-04T20:46:33.565Z,28.77
2018-02-04T20:49:01.863Z,27.90
2018-02-04T20:51:30.839Z,30.03
2018-02-04T20:53:59.132Z,31.43
2018-02-04T20:56:27.544Z,32.90
2018-02-04T20:58:55.984Z,31.33
2018-02-04T21:01:24.304Z,30.47
2018-02-04T21:03:52.556Z,31.93
2018-02-04T21:06:23.091Z,32.50
2018-02-04T21:08:51.356Z,33.43
2018-02-04T21:11:20.468Z,36.07
2018-02-04T21:13:48.696Z,32.97
2018-02-04T21:16:17.773Z,29.10
2018-02-04T21:18:46.069Z,37.67
2018-02-04T21:21:14.336Z,33.63
2018-02-04T21:23:42.567Z,33.20
2018-02-04T21:26:11.624Z,35.27
2018-02-04T21:28:39.927Z,33.03
2018-02-04T21:31:08.942Z,36.90
2018-02-04T21:33:37.290Z,37.30
2018-02-04T21:36:05.583Z,39.10
2018-02-04T21:38:34.686Z,37.30
2018-02-04T21:41:03.764Z,38.67
2018-02-04T21:43:31.932Z,35.07
2018-02-04T21:46:00.268Z,37.63
2018-02-04T21:48:28.600Z,36.70
2018-02-04T21:50:56.840Z,41.87
2018-02-04T21:53:25.159Z,38.60
2018-02-04T21:55:53.448Z,39.90
2018-02-04T21:58:22.515Z,42.00
2018-02-04T22:00:50.887Z,36.63
2018-02-04T22:03:19.294Z,39.70
2018-02-04T22:05:47.562Z,39.27
2018-02-04T22:08:15.816Z,39.13
2018-02-04T22:10:45.585Z,38.87
2018-02-04T22:13:14.645Z,41.50
2018-02-04T22:15:43.015Z,42.20
2018-02-04T22:18:11.337Z,33.83
2018-02-04T22:20:39.528Z,37.97
2018-02-04T22:23:07.804Z,39.20
2018-02-04T22:25:38.020Z,35.87
2018-02-04T22:28:06.544Z,42.27
2018-02-04T22:30:34.792Z,39.80
2018-02-04T22:33:03.147Z,45.17
2018-02-04T22:35:32.305Z,39.87
2018-02-04T22:38:00.540Z,38.33
2018-02-04T22:40:28.821Z,41.10
2018-02-04T22:42:57.104Z,38.97
2018-02-04T22:45:25.320Z,43.27
2018-02-04T22:47:53.562Z,41.20
2018-02-04T22:50:21.819Z,40.90
2018-02-04T22:52:50.120Z,36.90
2018-02-04T22:55:18.444Z,36.70
2018-02-04T22:57:46.706Z,37.73
2018-02-04T23:00:15.036Z,36.10
2018-02-04T23:02:43.346Z,37.77
2018-02-04T23:05:11.606Z,36.43
2018-02-04T23:07:39.826Z,37.03
2018-02-04T23:10:08.180Z,34.60
2018-02-04T23:12:36.381Z,35.83
2018-02-04T23:15:04.713Z,34.13
2018-02-04T23:17:33.053Z,37.90
2018-02-04T23:20:02.089Z,35.93
2018-02-04T23:22:30.296Z,37.37
2018-02-04T23:24:58.612Z,38.07
2018-02-04T23:27:26.936Z,36.50
2018-02-04T23:29:55.141Z,36.80
2018-02-04T23:32:23.420Z,35.23
2018-02-04T23:34:52.578Z,39.30
2018-02-04T23:37:21.902Z,37.47
2018-02-04T23:39:50.240Z,36.47
2018-02-04T23:42:18.622Z,38.73
2018-02-04T23:44:46.855Z,35.10
2018-02-04T23:47:15.904Z,36.93
2018-02-04T23:49:44.388Z,34.70
2018-02-04T23:52:12.608Z,37.67
2018-02-04T23:54:41.693Z,33.50
2018-02-04T23:57:09.870Z,35.80
2018-02-04T23:59:38.870Z,36.47
